Boulder City, Nevada Weather observations

Data are for observation ending at time listed.
 Day   Time    Ave.   Ave.  Ave.  Vector   Max.   Stn.    Total    Solar   Ave.  
  of    of     Air    Rel.  Wind   Wind    Wind   Baro.  Precip.   Rad.    Soil  
Year   Day     Temp.  Hum.  Speed  Dir.    Gust   Pres.                    Temp. 
2026   (PST)    F      %     mph   deg.    mph     mb.     in.     W/m2     F   
------------------------------------------------------------------------------
 126    0:00   62.7    26    2.6   200      4.2   927.9    0.00       0    80.4
 126    0:10   62.6    27    3.2   209      5.4   927.9    0.00       0    80.2
 126    0:20   62.7    27    3.7   219      6.6   927.9    0.00       0    80.1
 126    0:30   62.5    28    4.1   216      6.9   927.9    0.00       0    80.0
 126    0:40   62.4    28    3.3   214      5.0   927.8    0.00       0    79.8
 126    0:50   62.3    29    3.8   217      7.6   927.8    0.00       0    79.7
 126    1:00   62.2    30    4.1   215      7.2   927.8    0.00       0    79.5
 126    1:10   62.1    31    5.0   217      8.3   927.9    0.00       0    79.4
 126    1:20   61.8    32    4.7   196     10.2   927.9    0.00       0    79.2
 126    1:30   61.4    33    3.5   187      7.5   928.0    0.00       0    79.1
 126    1:40   60.4    33    3.0   208      4.1   928.1    0.00       0    79.0
 126    1:50   59.9    33    3.0   186      4.7   928.1    0.00       0    78.8
 126    2:00   60.3    32    4.6   184      7.3   928.1    0.00       0    78.7
 126    2:10   60.7    32    3.6   210      5.3   928.1    0.00       0    78.5
 126    2:20   60.0    32    2.6   187      4.2   928.2    0.00       0    78.4
 126    2:30   59.4    34    2.8   183      4.5   928.3    0.00       0    78.3
 126    2:40   58.9    35    2.7   179      3.9   928.4    0.00       0    78.1
 126    2:50   58.5    36    3.0   178      4.2   928.5    0.00       0    78.0
 126    3:00   58.9    35    2.4   163      4.2   928.5    0.00       0    77.9
 126    3:10   59.8    34    4.3   169      6.2   928.6    0.00       0    77.8
 126    3:20   59.7    36    4.8   174      8.3   928.7    0.00       0    77.6
 126    3:30   60.0    35    4.9   167      9.0   928.8    0.00       0    77.5
 126    3:40   60.2    35    3.8   175      7.6   928.9    0.00       0    77.4
 126    3:50   60.0    35    4.3   175      7.5   928.9    0.00       0    77.3
 126    4:00   60.0    35    4.1   164      7.0   929.0    0.00       0    77.1
 126    4:10   60.0    35    4.7   182      8.9   929.0    0.00       0    77.0
 126    4:20   59.5    36    3.5   212      8.0   929.0    0.00       0    76.9
 126    4:30   58.9    36    4.2   189      7.6   929.0    0.00       0    76.7
 126    4:40   59.5    36    6.0   174     10.0   929.2    0.00       2    76.6
 126    4:50   59.0    36    3.8   196      6.6   929.2    0.00       6    76.5
 126    5:00   58.4    37    4.5   226      7.0   929.3    0.00      16    76.4
 126    5:10   58.8    36    3.4   195      5.3   929.4    0.00      20    76.3
 126    5:20   59.5    35    3.7   210      7.1   929.5    0.00      26    76.1
 126    5:30   60.7    33    4.3   217      6.9   929.6    0.00      30    76.0
 126    5:40   61.1    33    4.3   225      7.2   929.9    0.00     120    75.9
 126    5:50   61.7    33    3.7   219      6.2   930.1    0.00     175    75.8
 126    6:00   62.3    32    4.2   214      7.7   930.4    0.00     209    75.6
 126    6:10   62.9    32    3.1   194      5.5   930.7    0.00     243    75.5
 126    6:20   64.0    31    3.1   167      4.9   931.0    0.00     277    75.4
 126    6:30   64.4    30    3.1   178      5.0   931.1    0.00     311    75.3
 126    6:40   64.9    30    2.3   188      5.3   931.3    0.00     345    75.2
 126    6:50   66.8    29    2.2   131      5.5   931.5    0.00     379    75.1
 126    7:00   67.1    28    4.2   140      7.9   931.6    0.00     413    75.0
 126    7:10   67.3    28    4.2   138      9.0   931.7    0.00     446    74.9
 126    7:20   68.0    28    3.3   148      7.4   931.8    0.00     479    74.8
 126    7:30   67.5    28    5.2   164     10.9   931.9    0.00     510    74.9
 126    7:40   68.4    27    3.7   144     10.7   932.0    0.00     541    74.8
 126    7:50   69.4    26    5.3   122     13.1   932.1    0.00     572    74.8
 126    8:00   70.3    25    4.4   115      8.2   932.2    0.00     602    74.9
 126    8:10   71.0    25    3.7   123      9.9   932.3    0.00     631    74.9
 126    8:20   71.4    24    4.4   155      8.3   932.4    0.00     659    74.9
 126    8:30   71.2    24    4.5   151      9.7   932.5    0.00     684    75.0
 126    8:40   71.5    24    3.6   181      8.2   932.6    0.00     685    75.1
 126    8:50   72.0    23    4.2   164      7.5   932.6    0.00     676    75.2
 126    9:00   72.4    23    2.8   194      6.1   932.7    0.00     632    75.3
 126    9:10   73.5    22    5.5   120     15.8   932.7    0.00     775    75.5
 126    9:20   73.3    22    3.0   204      8.4   932.8    0.00     688    75.6
 126    9:30   74.1    22    4.3   148     11.4   932.8    0.00     784    75.8
 126    9:40   74.9    21    3.4   107      8.3   932.9    0.00     820    76.0
 126    9:50   76.0    20    4.0    58     10.0   932.9    0.00     815    76.2
 126   10:00   75.6    21    3.7    68      9.4   933.0    0.00     767    76.4
 126   10:10   76.5    20    3.2   116      7.1   933.0    0.00     639    76.7
 126   10:20   77.0    20    3.6    91      9.5   933.1    0.00     770    76.9
 126   10:30   77.0    20    3.0   138     12.3   933.1    0.00     775    77.2
 126   10:40   77.2    19    3.1   105      8.8   933.1    0.00     882    77.5
 126   10:50   77.7    19    3.3    49      6.9   933.1    0.00     828    77.8
 126   11:00   77.0    20    2.3   116      7.5   933.0    0.00     918    78.1
 126   11:10   78.7    18    3.5    59      8.6   932.9    0.00     796    78.4
 126   11:20   77.5    19    3.5    54      8.8   932.9    0.00     894    78.7
 126   11:30   77.3    20    2.8    44      7.7   932.8    0.00     944    79.1
 126   11:40   78.8    19    3.8     8      9.2   932.7    0.00     944    79.4
 126   11:50   79.6    18    5.1    12     11.7   932.7    0.00     943    79.8
 126   12:00   79.8    18    5.5    33     13.0   932.6    0.00     939    80.1
 126   12:10   79.5    18    5.9    20     11.9   932.6    0.00     933    80.4
 126   12:20   79.2    18    6.3    15     12.5   932.5    0.00     926    80.8
 126   12:30   79.2    18    5.3     9     10.0   932.5    0.00     918    81.1
 126   12:40   79.7    18    4.2    16      8.2   932.5    0.00     908    81.5
 126   12:50   79.5    18    4.0    13      8.3   932.4    0.00     895    81.9
 126   13:00   79.3    18    2.8   356     10.4   932.4    0.00     883    82.2
 126   13:10   79.4    18    3.8   334      9.5   932.3    0.00     868    82.5
 126   13:20   79.9    17    5.3   344      9.1   932.2    0.00     852    82.8

Return to Boulder City, Nevada graphs page.


Western Regional Climate Center,wrcc@dri.edu